sensor_id;sensor_type;location;lat;lon;timestamp;pressure;altitude;pressure_sealevel;temperature;humidity
49065;BME280;34877;27.062;-82.386;2022-07-29T00:01:15;101830.60;;;18.77;71.89
49065;BME280;34877;27.062;-82.386;2022-07-29T00:11:17;101826.55;;;18.23;73.69
49065;BME280;34877;27.062;-82.386;2022-07-29T00:21:21;101839.71;;;18.71;72.24
49065;BME280;34877;27.062;-82.386;2022-07-29T00:31:27;101854.43;;;18.30;73.76
49065;BME280;34877;27.062;-82.386;2022-07-29T00:41:32;101857.98;;;18.64;72.70
49065;BME280;34877;27.062;-82.386;2022-07-29T00:51:37;101859.13;;;18.15;71.30
49065;BME280;34877;27.062;-82.386;2022-07-29T01:01:42;101874.05;;;18.25;73.02
49065;BME280;34877;27.062;-82.386;2022-07-29T01:11:48;101887.43;;;18.56;72.46
49065;BME280;34877;27.062;-82.386;2022-07-29T01:21:57;101900.34;;;17.64;65.96
49065;BME280;34877;27.062;-82.386;2022-07-29T01:32:06;101914.63;;;16.82;62.76
49065;BME280;34877;27.062;-82.386;2022-07-29T01:42:23;101943.47;;;16.90;61.20
49065;BME280;34877;27.062;-82.386;2022-07-29T01:52:33;101947.11;;;16.49;59.96
49065;BME280;34877;27.062;-82.386;2022-07-29T02:02:39;101956.61;;;16.53;58.99
49065;BME280;34877;27.062;-82.386;2022-07-29T02:12:43;101961.87;;;16.29;59.21
49065;BME280;34877;27.062;-82.386;2022-07-29T02:22:47;101968.44;;;15.73;59.66
49065;BME280;34877;27.062;-82.386;2022-07-29T02:32:52;101976.08;;;15.09;59.51
49065;BME280;34877;27.062;-82.386;2022-07-29T02:42:57;101972.98;;;15.52;59.14
49065;BME280;34877;27.062;-82.386;2022-07-29T02:53:07;101994.98;;;14.76;59.47
49065;BME280;34877;27.062;-82.386;2022-07-29T03:03:15;102004.48;;;14.50;59.21
49065;BME280;34877;27.062;-82.386;2022-07-29T03:13:22;102019.02;;;14.52;59.31
49065;BME280;34877;27.062;-82.386;2022-07-29T03:23:27;102017.69;;;14.35;59.09
49065;BME280;34877;27.062;-82.386;2022-07-29T03:33:32;102018.05;;;14.46;59.31
49065;BME280;34877;27.062;-82.386;2022-07-29T03:43:38;102016.01;;;14.40;59.22
49065;BME280;34877;27.062;-82.386;2022-07-29T03:53:42;102007.41;;;14.12;59.17
49065;BME280;34877;27.062;-82.386;2022-07-29T04:03:47;102010.82;;;13.51;59.05
49065;BME280;34877;27.062;-82.386;2022-07-29T04:13:52;102012.46;;;13.18;58.77
49065;BME280;34877;27.062;-82.386;2022-07-29T04:23:57;102006.67;;;13.36;62.08
49065;BME280;34877;27.062;-82.386;2022-07-29T04:34:02;102003.31;;;14.21;62.27
49065;BME280;34877;27.062;-82.386;2022-07-29T04:44:07;101998.85;;;14.00;62.72
49065;BME280;34877;27.062;-82.386;2022-07-29T04:54:12;102003.58;;;14.19;63.08
49065;BME280;34877;27.062;-82.386;2022-07-29T05:04:16;102001.46;;;13.51;63.45
49065;BME280;34877;27.062;-82.386;2022-07-29T05:14:22;101999.80;;;13.08;66.01
49065;BME280;34877;27.062;-82.386;2022-07-29T05:24:27;101990.50;;;13.98;64.20
49065;BME280;34877;27.062;-82.386;2022-07-29T05:34:32;101998.82;;;13.64;64.48
49065;BME280;34877;27.062;-82.386;2022-07-29T05:44:37;101992.12;;;13.84;67.06
49065;BME280;34877;27.062;-82.386;2022-07-29T05:54:42;101989.81;;;13.77;64.66
49065;BME280;34877;27.062;-82.386;2022-07-29T06:04:47;101994.38;;;13.74;67.39
49065;BME280;34877;27.062;-82.386;2022-07-29T06:14:51;101979.68;;;13.84;65.61
49065;BME280;34877;27.062;-82.386;2022-07-29T06:24:56;101983.26;;;14.02;67.55
49065;BME280;34877;27.062;-82.386;2022-07-29T06:35:02;101969.40;;;13.97;66.12
49065;BME280;34877;27.062;-82.386;2022-07-29T06:45:07;101964.86;;;13.42;67.16
49065;BME280;34877;27.062;-82.386;2022-07-29T06:55:12;101950.78;;;14.25;66.52
49065;BME280;34877;27.062;-82.386;2022-07-29T07:05:17;101943.75;;;13.47;68.08
49065;BME280;34877;27.062;-82.386;2022-07-29T07:15:22;101938.25;;;13.97;66.35
49065;BME280;34877;27.062;-82.386;2022-07-29T07:25:27;101926.25;;;13.16;68.79
49065;BME280;34877;27.062;-82.386;2022-07-29T07:35:32;101914.77;;;13.94;66.99
49065;BME280;34877;27.062;-82.386;2022-07-29T07:45:36;101917.97;;;13.67;68.49
49065;BME280;34877;27.062;-82.386;2022-07-29T07:55:42;101893.69;;;14.35;67.13
49065;BME280;34877;27.062;-82.386;2022-07-29T08:05:47;101889.59;;;13.44;68.71
49065;BME280;34877;27.062;-82.386;2022-07-29T08:15:52;101890.16;;;13.93;67.66
49065;BME280;34877;27.062;-82.386;2022-07-29T08:36:33;101898.95;;;13.88;67.31
49065;BME280;34877;27.062;-82.386;2022-07-29T08:46:38;101900.32;;;13.10;68.66
49065;BME280;34877;27.062;-82.386;2022-07-29T08:56:42;101890.28;;;13.70;67.86
49065;BME280;34877;27.062;-82.386;2022-07-29T09:06:49;101889.08;;;13.38;69.11
49065;BME280;34877;27.062;-82.386;2022-07-29T09:16:57;101890.16;;;13.98;67.93
49065;BME280;34877;27.062;-82.386;2022-07-29T09:27:02;101886.45;;;14.40;67.92
49065;BME280;34877;27.062;-82.386;2022-07-29T09:37:06;101892.39;;;14.11;67.31
49065;BME280;34877;27.062;-82.386;2022-07-29T09:47:11;101908.52;;;14.41;67.02
49065;BME280;34877;27.062;-82.386;2022-07-29T09:57:32;101918.71;;;14.52;67.18
49065;BME280;34877;27.062;-82.386;2022-07-29T10:07:46;101925.13;;;15.39;66.91
49065;BME280;34877;27.062;-82.386;2022-07-29T10:17:51;101923.50;;;14.63;66.96
49065;BME280;34877;27.062;-82.386;2022-07-29T10:27:56;101928.97;;;14.88;66.73
49065;BME280;34877;27.062;-82.386;2022-07-29T10:38:26;101940.84;;;14.86;67.11
49065;BME280;34877;27.062;-82.386;2022-07-29T10:48:31;101937.50;;;14.83;67.08
49065;BME280;34877;27.062;-82.386;2022-07-29T10:58:37;101946.68;;;14.84;67.40
49065;BME280;34877;27.062;-82.386;2022-07-29T11:08:42;101964.68;;;15.01;68.47
49065;BME280;34877;27.062;-82.386;2022-07-29T11:19:21;101973.48;;;15.48;67.81
49065;BME280;34877;27.062;-82.386;2022-07-29T11:29:28;101981.60;;;15.27;67.84
49065;BME280;34877;27.062;-82.386;2022-07-29T11:39:32;101989.68;;;15.65;67.91
49065;BME280;34877;27.062;-82.386;2022-07-29T11:49:44;101990.16;;;15.19;68.02
49065;BME280;34877;27.062;-82.386;2022-07-29T11:59:52;101995.07;;;15.67;68.26
49065;BME280;34877;27.062;-82.386;2022-07-29T12:09:56;102008.67;;;15.87;68.07
49065;BME280;34877;27.062;-82.386;2022-07-29T12:20:03;102017.11;;;15.79;68.41
49065;BME280;34877;27.062;-82.386;2022-07-29T12:30:09;102009.21;;;15.91;68.43
49065;BME280;34877;27.062;-82.386;2022-07-29T12:40:14;102027.14;;;15.59;68.24
49065;BME280;34877;27.062;-82.386;2022-07-29T12:50:17;102040.36;;;15.72;68.08
49065;BME280;34877;27.062;-82.386;2022-07-29T13:00:23;102036.60;;;16.16;68.60
49065;BME280;34877;27.062;-82.386;2022-07-29T13:10:26;102045.79;;;15.98;68.16
49065;BME280;34877;27.062;-82.386;2022-07-29T13:20:32;102045.89;;;16.14;68.41
49065;BME280;34877;27.062;-82.386;2022-07-29T13:30:36;102043.41;;;16.57;68.60
49065;BME280;34877;27.062;-82.386;2022-07-29T13:40:42;102054.29;;;16.22;68.99
49065;BME280;34877;27.062;-82.386;2022-07-29T13:50:46;102058.08;;;16.58;71.55
49065;BME280;34877;27.062;-82.386;2022-07-29T14:00:52;102067.37;;;16.42;70.51
49065;BME280;34877;27.062;-82.386;2022-07-29T14:10:57;102059.67;;;16.54;70.68
49065;BME280;34877;27.062;-82.386;2022-07-29T14:21:02;102065.41;;;16.57;70.07
49065;BME280;34877;27.062;-82.386;2022-07-29T14:31:07;102067.45;;;16.54;72.10
49065;BME280;34877;27.062;-82.386;2022-07-29T14:41:13;102068.25;;;17.12;72.64
49065;BME280;34877;27.062;-82.386;2022-07-29T14:51:16;102073.02;;;16.98;72.08
49065;BME280;34877;27.062;-82.386;2022-07-29T15:01:22;102066.60;;;17.40;72.31
49065;BME280;34877;27.062;-82.386;2022-07-29T15:11:26;102061.84;;;17.55;72.62
49065;BME280;34877;27.062;-82.386;2022-07-29T15:21:31;102067.08;;;17.69;72.36
49065;BME280;34877;27.062;-82.386;2022-07-29T15:31:37;102055.06;;;18.07;72.19
49065;BME280;34877;27.062;-82.386;2022-07-29T15:41:42;102050.73;;;17.84;72.13
49065;BME280;34877;27.062;-82.386;2022-07-29T15:51:46;102045.03;;;18.07;72.89
49065;BME280;34877;27.062;-82.386;2022-07-29T16:01:51;102040.40;;;18.48;72.57
49065;BME280;34877;27.062;-82.386;2022-07-29T16:11:57;102034.41;;;18.32;73.19
49065;BME280;34877;27.062;-82.386;2022-07-29T16:22:02;102037.54;;;19.18;73.74
49065;BME280;34877;27.062;-82.386;2022-07-29T16:32:07;102036.48;;;18.77;76.51
49065;BME280;34877;27.062;-82.386;2022-07-29T16:42:12;102023.81;;;18.72;73.14
49065;BME280;34877;27.062;-82.386;2022-07-29T16:52:17;102018.66;;;18.88;76.23
49065;BME280;34877;27.062;-82.386;2022-07-29T17:02:22;102007.22;;;19.39;75.49
49065;BME280;34877;27.062;-82.386;2022-07-29T17:12:26;101996.48;;;18.69;75.64
49065;BME280;34877;27.062;-82.386;2022-07-29T17:22:31;101982.15;;;19.15;75.74
49065;BME280;34877;27.062;-82.386;2022-07-29T17:32:36;101974.45;;;19.16;76.00
49065;BME280;34877;27.062;-82.386;2022-07-29T17:42:42;101972.45;;;18.61;72.44
49065;BME280;34877;27.062;-82.386;2022-07-29T17:52:47;101970.70;;;19.48;74.16
49065;BME280;34877;27.062;-82.386;2022-07-29T18:02:52;101966.59;;;19.10;71.73
49065;BME280;34877;27.062;-82.386;2022-07-29T18:12:57;101956.25;;;19.02;73.07
49065;BME280;34877;27.062;-82.386;2022-07-29T18:23:02;101957.96;;;19.29;70.72
49065;BME280;34877;27.062;-82.386;2022-07-29T18:33:07;101946.23;;;19.21;72.03
49065;BME280;34877;27.062;-82.386;2022-07-29T18:43:13;101931.40;;;19.47;69.48
49065;BME280;34877;27.062;-82.386;2022-07-29T18:53:17;101935.60;;;19.10;71.10
49065;BME280;34877;27.062;-82.386;2022-07-29T19:03:21;101923.14;;;19.39;69.56
49065;BME280;34877;27.062;-82.386;2022-07-29T19:13:31;101921.89;;;18.71;70.76
49065;BME280;34877;27.062;-82.386;2022-07-29T19:34:37;101913.35;;;18.97;69.49
49065;BME280;34877;27.062;-82.386;2022-07-29T19:44:42;101895.48;;;19.59;68.74
49065;BME280;34877;27.062;-82.386;2022-07-29T19:54:47;101877.68;;;19.52;70.00
49065;BME280;34877;27.062;-82.386;2022-07-29T20:04:52;101857.10;;;19.37;67.81
49065;BME280;34877;27.062;-82.386;2022-07-29T20:14:56;101851.82;;;20.04;68.64
49065;BME280;34877;27.062;-82.386;2022-07-29T20:25:02;101835.41;;;20.15;68.47
49065;BME280;34877;27.062;-82.386;2022-07-29T20:35:07;101828.20;;;19.58;66.87
49065;BME280;34877;27.062;-82.386;2022-07-29T20:45:11;101828.60;;;19.40;69.49
49065;BME280;34877;27.062;-82.386;2022-07-29T20:55:16;101805.93;;;20.03;68.82
49065;BME280;34877;27.062;-82.386;2022-07-29T21:05:22;101789.19;;;19.26;67.93
49065;BME280;34877;27.062;-82.386;2022-07-29T21:15:27;101785.36;;;19.35;71.06
49065;BME280;34877;27.062;-82.386;2022-07-29T21:25:31;101797.32;;;19.42;67.66
49065;BME280;34877;27.062;-82.386;2022-07-29T21:35:36;101815.45;;;19.08;67.98
49065;BME280;34877;27.062;-82.386;2022-07-29T21:45:42;101818.29;;;18.76;69.90
49065;BME280;34877;27.062;-82.386;2022-07-29T21:55:47;101803.03;;;18.62;68.31
49065;BME280;34877;27.062;-82.386;2022-07-29T22:05:51;101772.96;;;18.85;69.88
49065;BME280;34877;27.062;-82.386;2022-07-29T22:15:57;101743.88;;;18.98;67.16
49065;BME280;34877;27.062;-82.386;2022-07-29T22:26:02;101740.95;;;19.14;69.13
49065;BME280;34877;27.062;-82.386;2022-07-29T22:36:07;101768.38;;;18.69;66.99
49065;BME280;34877;27.062;-82.386;2022-07-29T22:46:12;101810.70;;;18.61;67.45
49065;BME280;34877;27.062;-82.386;2022-07-29T22:56:17;101827.71;;;19.09;68.00
49065;BME280;34877;27.062;-82.386;2022-07-29T23:06:21;101833.89;;;18.47;65.09
49065;BME280;34877;27.062;-82.386;2022-07-29T23:16:26;101840.10;;;18.80;69.33
49065;BME280;34877;27.062;-82.386;2022-07-29T23:26:31;101836.43;;;18.54;66.58
49065;BME280;34877;27.062;-82.386;2022-07-29T23:36:37;101846.05;;;18.06;62.65
49065;BME280;34877;27.062;-82.386;2022-07-29T23:46:42;101920.71;;;17.20;60.31
49065;BME280;34877;27.062;-82.386;2022-07-29T23:56:46;101923.24;;;17.10;59.00
